This is the latest recevied weather packets stored in our database for station/object EA1HTW-1. If no packets are shown the sender has not sent any weather packets the latest 10 day(s).
| Time | Temp. | Humidity | Pressure | Rain* | Wind** | Luminosity | Snow |
|---|---|---|---|---|---|---|---|
| 1777754965 | 12.78° C | 93% | 986.4 hPa | 1.52 mm | - | - | - |
| 1777753765 | 12.78° C | 93% | 986.2 hPa | 1.52 mm | - | - | - |
| 1777753166 | 12.78° C | 93% | 986.1 hPa | 1.78 mm | - | - | - |
| 1777751968 | 13.33° C | 92% | 985.9 hPa | 2.79 mm | - | - | - |
| 1777750765 | 13.33° C | 91% | 986 hPa | 2.79 mm | - | - | - |
| 1777750166 | 13.33° C | 91% | 986 hPa | 2.79 mm | - | - | - |
| 1777749565 | 13.89° C | 89% | 985.7 hPa | 2.29 mm | - | - | - |
| 1777748963 | 13.33° C | 88% | 985.9 hPa | 1.52 mm | - | - | - |
| 1777748366 | 13.89° C | 87% | 986 hPa | 0.51 mm | - | - | - |
| 1777747165 | 14.44° C | 82% | 985.7 hPa | 0 mm | - | - | - |
| 1777745366 | 15.56° C | 81% | 985.6 hPa | 0 mm | - | - | - |
| 1777744166 | 15° C | 83% | 985.6 hPa | 0 mm | - | - | - |
| 1777742366 | 15° C | 83% | 985.6 hPa | 0 mm | - | - | - |
| 1777741164 | 15.56° C | 81% | 985.7 hPa | 0 mm | - | - | - |
| 1777740565 | 15.56° C | 79% | 985.6 hPa | 0 mm | - | - | - |
| 1777739964 | 16.67° C | 79% | 985.7 hPa | 1.27 mm | - | - | - |
| 1777738763 | 16.11° C | 79% | 985.7 hPa | 3.3 mm | - | - | - |
| 1777738164 | 15.56° C | 81% | 985.7 hPa | 3.3 mm | - | - | - |
| 1777737566 | 15° C | 83% | 985.7 hPa | 3.3 mm | - | - | - |
| 1777736966 | 15° C | 84% | 985.8 hPa | 3.3 mm | - | - | - |
| 1777735766 | 16.67° C | 74% | 985.9 hPa | 0 mm | - | - | - |
| 1777735165 | 17.22° C | 71% | 986 hPa | 0 mm | - | - | - |
| 1777734564 | 17.22° C | 72% | 986 hPa | 0 mm | - | - | - |
| 1777733965 | 17.22° C | 70% | 986.1 hPa | 0 mm | - | - | - |
| 1777732766 | 17.78° C | 71% | 986.3 hPa | 0 mm | - | - | - |
* Rain latest hour (hover to see other rain measurements)
** Current wind speed in m/s (hover to see current wind gust speed)